Oktaha, Oklahoma
Current Conditions -  °F | °C
As of 1:18 AM on Saturday 20 Dec 2014 (Local Time) from KMKO Reporting Station
Haze Haze  
Wind Chill: 40°   Ceiling: 600
Heat Index: 40°   Visibility: 1.7mi
Dew Point: 38°   Wind: 3mph
Humidity: 93%   Direction: 40°NE
Pressure: 30.23"   Gusts: NA
Location:  35.58°N, 95.47°W
Report Text: KMKO 200718Z AUTO 04003KT 1 3/4SM BR OVC006 04/03 A3023 RMK AO2 T00440033
Loading
Personal Weather Stations






























Interactive Weather Map New forecast layout! Learn more

10-Day Weather Forecast

Advertisements
Track Severe Weather on mobile